Time;durP1;ratioP1;P1;durP2;ratioP2;P2;SDS_P1;SDS_P2;PMS_P1;PMS_P2;Temp;Humidity;BMP_temperature;BMP_pressure;BME280_temperature;BME280_humidity;BME280_pressure;Samples;Min_cycle;Max_cycle;Signal;HPM_P1;HPM_P2
2023/06/22 00:02:19;;;;;;;4.23;4.13;;;23.50;97.70;;;;;;5028937;28;20420;-89
2023/06/22 00:04:52;;;;;;;4.60;4.50;;;23.50;97.70;;;;;;5009498;28;20463;-89
2023/06/22 00:07:21;;;;;;;4.13;4.00;;;23.40;98.20;;;;;;5009631;28;20464;-90
2023/06/22 00:09:49;;;;;;;5.20;5.03;;;23.40;98.10;;;;;;5014514;28;20527;-90
2023/06/22 00:12:16;;;;;;;5.20;5.00;;;23.40;98.10;;;;;;5016270;28;20428;-90
2023/06/22 00:14:52;;;;;;;6.13;5.60;;;23.40;98.40;;;;;;5006765;28;20456;-91
2023/06/22 00:17:18;;;;;;;5.70;5.40;;;23.50;98.60;;;;;;5009379;28;20463;-90
2023/06/22 00:19:47;;;;;;;5.97;5.67;;;23.50;98.50;;;;;;5006690;28;20436;-91
2023/06/22 00:22:17;;;;;;;5.00;4.80;;;23.40;98.80;;;;;;5017451;28;20193;-82
2023/06/22 00:24:46;;;;;;;5.70;5.50;;;23.50;99.10;;;;;;5019589;28;20448;-89
2023/06/22 00:27:12;;;;;;;5.63;5.33;;;23.40;99.40;;;;;;5020988;28;20470;-91
2023/06/22 00:29:37;;;;;;;6.80;6.30;;;23.40;99.70;;;;;;5014436;28;20432;-90
2023/06/22 00:32:03;;;;;;;5.87;5.67;;;23.30;99.90;;;;;;5019153;28;20279;-90
2023/06/22 00:34:29;;;;;;;6.80;6.47;;;23.20;99.90;;;;;;5005460;28;20650;-90
2023/06/22 00:37:01;;;;;;;6.00;5.77;;;23.20;99.90;;;;;;5020925;28;20463;-91
2023/06/22 00:39:28;;;;;;;6.30;6.00;;;23.10;99.90;;;;;;5011932;28;20195;-90
2023/06/22 00:41:54;;;;;;;7.33;6.83;;;23.10;99.90;;;;;;4994136;28;20428;-89
2023/06/22 00:44:20;;;;;;;6.90;6.60;;;23.10;99.90;;;;;;5015341;28;20443;-89
2023/06/22 00:46:46;;;;;;;7.43;7.00;;;23.30;99.90;;;;;;5016499;28;20466;-90
2023/06/22 00:49:11;;;;;;;6.97;6.60;;;23.20;99.90;;;;;;5012421;28;20276;-91
2023/06/22 00:51:47;;;;;;;7.13;6.80;;;23.20;99.90;;;;;;5022470;28;20438;-90
2023/06/22 00:54:24;;;;;;;8.13;7.73;;;23.10;99.90;;;;;;4998405;28;20184;-90
2023/06/22 00:56:54;;;;;;;7.00;6.60;;;23.10;99.90;;;;;;5009512;28;20475;-89
2023/06/22 00:59:20;;;;;;;7.70;7.17;;;23.10;99.90;;;;;;5018423;28;20488;-90
2023/06/22 01:01:46;;;;;;;7.20;6.90;;;22.90;99.90;;;;;;5008684;28;20427;-89
2023/06/22 01:04:15;;;;;;;7.10;6.80;;;22.90;99.90;;;;;;5009581;28;20439;-90
2023/06/22 01:07:25;;;;;;;7.00;6.67;;;23.00;99.90;;;;;;5002074;28;20467;-90
2023/06/22 01:10:12;;;;;;;6.20;6.00;;;23.10;99.90;;;;;;4990047;28;20499;-90
2023/06/22 01:12:45;;;;;;;6.50;6.30;;;23.20;99.90;;;;;;4995777;28;20441;-91
2023/06/22 01:16:05;;;;;;;6.80;6.40;;;23.20;99.90;;;;;;5006871;28;20448;-91
2023/06/22 01:18:43;;;;;;;6.93;6.53;;;23.10;99.90;;;;;;4945192;29;20431;-89
2023/06/22 01:21:15;;;;;;;6.43;6.23;;;23.00;99.90;;;;;;4989176;28;20799;-89
2023/06/22 01:24:23;;;;;;;7.50;7.10;;;22.90;99.90;;;;;;4999538;28;20437;-90
2023/06/22 01:27:15;;;;;;;9.00;8.40;;;22.90;99.90;;;;;;4987129;28;20463;-91
2023/06/22 01:29:42;;;;;;;10.07;9.47;;;22.80;99.90;;;;;;4990827;28;20588;-90
2023/06/22 01:32:11;;;;;;;9.80;9.00;;;22.90;99.90;;;;;;4995761;28;20428;-90
2023/06/22 01:34:40;;;;;;;10.50;9.90;;;22.90;99.90;;;;;;4989616;28;20423;-91
2023/06/22 01:37:07;;;;;;;9.10;8.60;;;23.00;99.90;;;;;;4998683;28;20440;-91
2023/06/22 01:39:41;;;;;;;9.57;9.07;;;23.10;99.90;;;;;;4997926;28;20455;-90
2023/06/22 01:42:13;;;;;;;11.23;10.33;;;23.20;99.90;;;;;;4997443;28;20451;-90
2023/06/22 01:44:39;;;;;;;12.90;11.90;;;23.00;99.90;;;;;;4983107;28;20414;-90
2023/06/22 01:47:06;;;;;;;12.23;11.43;;;22.90;99.90;;;;;;4992051;28;20556;-90
2023/06/22 01:49:33;;;;;;;11.83;11.10;;;22.90;99.90;;;;;;5004342;28;20447;-90
2023/06/22 01:52:01;;;;;;;12.17;11.23;;;22.80;99.90;;;;;;5000472;28;20813;-90
2023/06/22 01:54:26;;;;;;;13.23;12.23;;;22.90;99.90;;;;;;4985068;28;20517;-90
2023/06/22 01:56:52;;;;;;;13.37;12.07;;;22.70;99.90;;;;;;4995895;28;20467;-91
2023/06/22 01:59:21;;;;;;;13.27;12.03;;;22.60;99.90;;;;;;4991430;28;20193;-90
2023/06/22 02:02:08;;;;;;;12.90;12.20;;;22.60;99.90;;;;;;4993631;28;20177;-89
2023/06/22 02:05:06;;;;;;;12.70;11.80;;;22.60;99.90;;;;;;5000840;28;20440;-89
2023/06/22 02:07:51;;;;;;;13.43;12.40;;;22.70;99.90;;;;;;4995439;28;20464;-90
2023/06/22 02:10:21;;;;;;;12.20;11.10;;;22.80;99.90;;;;;;5010643;28;21176;-89
2023/06/22 02:12:48;;;;;;;14.60;13.40;;;22.70;99.90;;;;;;5023386;28;20416;-90
2023/06/22 02:15:22;;;;;;;13.87;12.70;;;22.50;99.90;;;;;;5028675;28;20771;-90
2023/06/22 02:17:48;;;;;;;13.53;12.40;;;22.50;99.90;;;;;;5011250;28;20479;-89
2023/06/22 02:20:14;;;;;;;14.70;13.50;;;22.50;99.90;;;;;;5020387;28;20445;-88
2023/06/22 02:22:40;;;;;;;14.17;13.03;;;22.50;99.90;;;;;;5023772;28;20185;-89
2023/06/22 02:25:06;;;;;;;14.93;13.93;;;22.30;99.90;;;;;;5013955;28;20425;-90
2023/06/22 02:27:32;;;;;;;13.97;13.03;;;22.20;99.90;;;;;;5026944;28;20431;-89
2023/06/22 02:29:58;;;;;;;14.47;12.83;;;22.20;99.90;;;;;;5027583;28;20457;-83
2023/06/22 02:32:24;;;;;;;13.77;12.80;;;22.30;99.90;;;;;;5001097;28;20559;-89
2023/06/22 02:34:59;;;;;;;14.13;13.03;;;22.20;99.90;;;;;;5013174;28;20184;-90
2023/06/22 02:37:25;;;;;;;14.93;13.93;;;22.20;99.90;;;;;;5003682;28;20550;-88
2023/06/22 02:39:53;;;;;;;14.13;13.23;;;22.20;99.90;;;;;;5013903;28;20437;-89
2023/06/22 02:42:20;;;;;;;14.43;13.07;;;22.10;99.90;;;;;;5015447;28;20174;-89
2023/06/22 02:44:54;;;;;;;13.77;12.73;;;22.10;99.90;;;;;;5010205;28;20435;-89
2023/06/22 02:47:19;;;;;;;15.13;13.83;;;22.00;99.90;;;;;;5013090;28;20435;-89
2023/06/22 02:49:51;;;;;;;14.37;13.47;;;22.20;99.90;;;;;;5014164;28;20591;-89
2023/06/22 02:52:19;;;;;;;14.20;13.27;;;22.10;99.90;;;;;;5010952;28;20201;-89
2023/06/22 02:54:45;;;;;;;14.80;13.80;;;22.10;99.90;;;;;;5006804;28;20420;-89
2023/06/22 02:57:13;;;;;;;12.90;12.20;;;22.10;99.90;;;;;;5004916;28;20497;-87
2023/06/22 02:59:40;;;;;;;13.77;12.80;;;22.10;99.90;;;;;;5002706;28;20447;-87
2023/06/22 03:02:06;;;;;;;13.73;12.73;;;22.10;99.90;;;;;;5003776;28;20488;-88
2023/06/22 03:04:32;;;;;;;14.37;13.00;;;22.10;99.90;;;;;;5007446;28;20657;-89
2023/06/22 03:07:01;;;;;;;13.20;12.20;;;22.20;99.90;;;;;;5001899;28;20267;-87
2023/06/22 03:09:27;;;;;;;15.10;14.10;;;22.10;99.90;;;;;;5004538;28;20192;-89
2023/06/22 03:11:56;;;;;;;14.93;13.80;;;22.10;99.90;;;;;;5004799;28;20619;-88
2023/06/22 03:14:21;;;;;;;16.03;14.63;;;22.10;99.90;;;;;;5007240;28;20435;-90
2023/06/22 03:16:47;;;;;;;14.93;13.83;;;22.00;99.90;;;;;;4992928;28;20806;-90
2023/06/22 03:19:13;;;;;;;14.40;13.30;;;21.90;99.90;;;;;;4982933;28;20232;-89
2023/06/22 03:21:39;;;;;;;16.40;14.93;;;22.00;99.90;;;;;;4995688;28;20499;-89
2023/06/22 03:24:11;;;;;;;14.17;13.17;;;22.00;99.90;;;;;;5001672;28;21211;-88
2023/06/22 03:26:36;;;;;;;17.90;16.27;;;22.10;99.90;;;;;;5000393;28;20434;-89
2023/06/22 03:29:03;;;;;;;16.43;15.13;;;22.10;99.90;;;;;;5001612;28;20523;-79
2023/06/22 03:31:29;;;;;;;15.63;14.47;;;21.90;99.90;;;;;;5003791;28;20196;-87
2023/06/22 03:33:55;;;;;;;17.87;16.60;;;22.00;99.90;;;;;;5002855;28;20437;-89
2023/06/22 03:36:22;;;;;;;16.60;15.50;;;22.00;99.90;;;;;;5008042;28;20471;-89
2023/06/22 03:38:48;;;;;;;16.90;15.70;;;21.90;99.90;;;;;;5003748;28;20483;-90
2023/06/22 03:41:14;;;;;;;16.27;15.07;;;22.10;99.90;;;;;;5005255;28;20435;-89
2023/06/22 03:43:41;;;;;;;16.60;15.33;;;22.10;99.90;;;;;;5009556;28;20444;-88
2023/06/22 03:46:07;;;;;;;18.70;17.30;;;22.10;99.90;;;;;;5001872;28;20992;-88
2023/06/22 03:48:32;;;;;;;16.83;15.57;;;22.10;99.90;;;;;;5008501;28;20415;-86
2023/06/22 03:51:02;;;;;;;17.43;16.03;;;22.20;99.90;;;;;;5005106;28;20192;-88
2023/06/22 03:53:28;;;;;;;16.40;15.13;;;22.20;99.90;;;;;;5004745;28;20188;-89
2023/06/22 03:55:54;;;;;;;15.90;14.80;;;22.30;99.90;;;;;;5013163;28;20881;-87
2023/06/22 03:58:21;;;;;;;17.37;16.23;;;22.40;99.90;;;;;;5014430;28;20997;-88
2023/06/22 04:00:50;;;;;;;19.07;17.57;;;22.50;99.90;;;;;;5010415;28;20169;-88
2023/06/22 04:03:18;;;;;;;20.00;18.50;;;22.40;99.90;;;;;;5025262;28;20427;-90
2023/06/22 04:05:44;;;;;;;18.33;16.83;;;22.20;99.90;;;;;;5022464;28;20441;-90
2023/06/22 04:08:09;;;;;;;17.90;16.57;;;22.30;99.90;;;;;;5017757;28;20431;-89
2023/06/22 04:10:35;;;;;;;18.30;17.00;;;22.20;99.90;;;;;;4997793;28;20219;-88
2023/06/22 04:13:00;;;;;;;17.73;16.50;;;22.30;99.90;;;;;;5008485;28;20192;-88
2023/06/22 04:15:26;;;;;;;19.07;17.67;;;22.30;99.90;;;;;;5007454;28;20234;-89
2023/06/22 04:17:53;;;;;;;19.80;17.73;;;22.50;99.90;;;;;;5010970;28;20660;-89
2023/06/22 04:20:18;;;;;;;19.77;18.13;;;22.60;99.90;;;;;;5002864;28;20614;-89
2023/06/22 04:22:46;;;;;;;20.23;18.63;;;22.60;99.90;;;;;;4990928;28;20428;-89
2023/06/22 04:25:11;;;;;;;19.30;17.90;;;22.60;99.90;;;;;;4994601;28;20196;-88
2023/06/22 04:27:40;;;;;;;19.77;18.23;;;22.50;99.90;;;;;;5015478;28;20919;-88
2023/06/22 04:30:06;;;;;;;18.73;16.93;;;22.40;99.90;;;;;;4992400;28;20215;-90
2023/06/22 04:32:33;;;;;;;18.47;16.90;;;22.30;99.90;;;;;;5012290;28;20509;-88
2023/06/22 04:35:00;;;;;;;17.30;15.83;;;22.30;99.90;;;;;;4992636;28;20440;-88
2023/06/22 04:37:25;;;;;;;17.07;15.80;;;22.30;99.90;;;;;;5008287;28;20471;-88
2023/06/22 04:39:51;;;;;;;17.60;16.30;;;22.40;99.90;;;;;;5007201;28;20518;-89
2023/06/22 04:42:19;;;;;;;22.73;19.90;;;22.30;99.90;;;;;;5009423;28;20208;-89
2023/06/22 04:44:44;;;;;;;20.30;18.00;;;22.20;99.90;;;;;;5018227;28;20243;-88
2023/06/22 04:47:10;;;;;;;20.67;19.20;;;22.10;99.90;;;;;;5017299;28;20787;-89
2023/06/22 04:49:37;;;;;;;21.40;19.40;;;22.20;99.90;;;;;;5021893;28;20663;-88
2023/06/22 04:52:10;;;;;;;21.10;19.60;;;22.30;99.90;;;;;;5009637;28;20215;-88
2023/06/22 04:54:37;;;;;;;22.07;20.27;;;22.20;99.90;;;;;;5020803;28;20424;-87
2023/06/22 04:57:09;;;;;;;21.13;19.23;;;22.10;99.90;;;;;;5017399;28;20502;-89
2023/06/22 04:59:35;;;;;;;25.03;22.57;;;22.00;99.90;;;;;;5015289;28;20507;-89
2023/06/22 05:02:05;;;;;;;22.83;21.13;;;22.00;99.90;;;;;;5010756;28;20444;-88
2023/06/22 05:04:32;;;;;;;23.50;21.67;;;21.90;99.90;;;;;;5023216;28;20447;-90
2023/06/22 05:06:58;;;;;;;23.13;21.43;;;21.90;99.90;;;;;;5023448;28;20428;-86
2023/06/22 05:09:27;;;;;;;23.23;21.20;;;21.90;99.90;;;;;;5022896;28;20439;-89
2023/06/22 05:11:54;;;;;;;24.83;22.40;;;21.80;99.90;;;;;;5013084;28;20767;-89
2023/06/22 05:14:19;;;;;;;23.47;21.50;;;21.70;99.90;;;;;;5002320;28;20425;-89
2023/06/22 05:16:46;;;;;;;23.60;21.60;;;21.70;99.90;;;;;;4999588;28;20416;-89
2023/06/22 05:19:12;;;;;;;22.13;20.53;;;21.70;99.90;;;;;;5016450;28;20193;-90
2023/06/22 05:21:38;;;;;;;23.83;21.70;;;21.60;99.90;;;;;;5014221;28;20456;-85
2023/06/22 05:24:04;;;;;;;22.87;21.10;;;21.60;99.90;;;;;;5011172;28;20434;-89
2023/06/22 05:26:43;;;;;;;22.17;20.53;;;21.60;99.90;;;;;;5010293;28;20435;-87
2023/06/22 05:29:09;;;;;;;21.17;19.73;;;21.70;99.90;;;;;;5016359;28;20427;-86
2023/06/22 05:31:41;;;;;;;22.10;20.03;;;21.60;99.90;;;;;;5014397;28;20435;-89
2023/06/22 05:34:13;;;;;;;21.47;19.90;;;21.80;99.90;;;;;;5016131;28;20181;-89
2023/06/22 05:36:39;;;;;;;21.50;19.40;;;21.80;99.90;;;;;;5001594;28;20439;-87
2023/06/22 05:39:13;;;;;;;21.90;20.27;;;21.90;99.90;;;;;;5003669;28;20423;-90
2023/06/22 05:41:43;;;;;;;22.00;20.30;;;21.80;99.90;;;;;;5004415;28;20438;-89
2023/06/22 05:44:08;;;;;;;21.87;20.33;;;21.90;99.90;;;;;;5025848;28;20499;-85
2023/06/22 05:46:34;;;;;;;20.90;19.23;;;21.90;99.90;;;;;;5016046;28;20459;-91
2023/06/22 05:49:02;;;;;;;20.07;18.60;;;22.00;99.90;;;;;;5013892;28;20435;-84
2023/06/22 05:51:27;;;;;;;20.77;18.97;;;22.10;99.90;;;;;;5020024;28;20229;-89
2023/06/22 05:53:54;;;;;;;21.87;19.83;;;22.10;99.90;;;;;;5019640;28;20887;-90
2023/06/22 05:56:20;;;;;;;21.37;19.60;;;22.30;99.90;;;;;;5014317;28;20440;-87
2023/06/22 05:58:46;;;;;;;19.57;17.93;;;22.20;99.90;;;;;;5025014;28;20196;-89
2023/06/22 06:01:12;;;;;;;17.90;16.43;;;22.20;99.90;;;;;;5021055;28;20248;-87
2023/06/22 06:03:40;;;;;;;18.93;17.43;;;22.20;99.90;;;;;;5024034;28;20432;-86
2023/06/22 06:06:07;;;;;;;19.10;17.67;;;22.20;99.90;;;;;;4994339;28;20192;-85
2023/06/22 06:08:35;;;;;;;19.57;18.17;;;22.30;99.90;;;;;;4999428;28;20510;-87
2023/06/22 06:11:00;;;;;;;19.93;18.20;;;22.10;99.90;;;;;;5007693;28;20462;-87
2023/06/22 06:13:26;;;;;;;18.90;17.60;;;22.20;99.90;;;;;;5003805;28;20432;-87
2023/06/22 06:15:54;;;;;;;19.93;18.20;;;22.20;99.90;;;;;;5006553;28;20651;-84
2023/06/22 06:18:20;;;;;;;19.87;18.17;;;22.30;99.90;;;;;;5008138;28;20219;-87
2023/06/22 06:20:46;;;;;;;19.70;18.30;;;22.40;99.90;;;;;;5011043;28;20424;-87
2023/06/22 06:23:11;;;;;;;19.93;18.27;;;22.40;99.90;;;;;;5007619;28;20185;-88
2023/06/22 06:25:38;;;;;;;20.03;18.17;;;22.50;99.90;;;;;;5004074;28;20568;-88
2023/06/22 06:28:04;;;;;;;20.17;18.60;;;22.50;99.90;;;;;;5003526;28;20652;-86
2023/06/22 06:30:30;;;;;;;18.97;17.47;;;22.60;99.90;;;;;;4987135;28;20639;-87
2023/06/22 06:32:56;;;;;;;19.17;17.73;;;22.80;99.90;;;;;;5007862;28;20450;-88
2023/06/22 06:35:21;;;;;;;18.10;16.70;;;22.90;99.90;;;;;;4988391;28;20188;-87
2023/06/22 06:37:49;;;;;;;17.07;15.60;;;23.20;99.90;;;;;;5013194;28;20211;-88
2023/06/22 06:40:16;;;;;;;15.83;14.63;;;23.40;99.90;;;;;;4982287;28;20447;-88
2023/06/22 06:42:46;;;;;;;17.57;16.10;;;23.50;99.90;;;;;;5009895;28;20438;-84
2023/06/22 06:45:20;;;;;;;15.90;14.90;;;23.50;99.90;;;;;;4992691;28;20427;-87
2023/06/22 06:47:46;;;;;;;18.00;16.77;;;23.70;99.90;;;;;;5004260;28;20444;-86
2023/06/22 06:50:12;;;;;;;19.20;16.50;;;23.60;99.90;;;;;;5009989;28;20760;-81
2023/06/22 06:52:38;;;;;;;17.33;15.80;;;23.70;99.90;;;;;;5012396;28;20423;-87
2023/06/22 06:55:04;;;;;;;17.70;16.10;;;23.50;99.90;;;;;;5019868;28;20440;-88
2023/06/22 06:57:32;;;;;;;17.07;15.63;;;23.50;99.90;;;;;;4999672;28;20498;-87
2023/06/22 07:00:11;;;;;;;18.83;17.53;;;23.50;99.90;;;;;;5007039;28;20502;-88
2023/06/22 07:02:41;;;;;;;17.83;16.63;;;23.60;99.90;;;;;;5015782;28;20435;-86
2023/06/22 07:05:06;;;;;;;16.77;15.57;;;23.60;99.90;;;;;;5014231;28;20432;-85
2023/06/22 07:07:32;;;;;;;18.17;16.50;;;23.50;99.90;;;;;;5013236;28;20424;-86
2023/06/22 07:10:00;;;;;;;16.73;15.57;;;23.60;99.90;;;;;;5001961;28;20537;-86
2023/06/22 07:12:34;;;;;;;18.10;16.60;;;23.60;99.90;;;;;;5013144;28;20569;-88
2023/06/22 07:15:09;;;;;;;20.27;18.30;;;23.60;99.90;;;;;;5013135;28;20487;-88
2023/06/22 07:17:35;;;;;;;19.00;17.60;;;23.60;99.90;;;;;;5017649;28;20489;-89
2023/06/22 07:20:04;;;;;;;17.83;16.53;;;23.50;99.90;;;;;;5018615;28;20540;-88
2023/06/22 07:22:30;;;;;;;20.77;19.00;;;23.30;99.90;;;;;;4993043;28;20436;-86
2023/06/22 07:24:56;;;;;;;22.70;20.33;;;23.20;99.90;;;;;;5006458;28;20438;-85
2023/06/22 07:27:21;;;;;;;22.93;20.80;;;23.00;99.90;;;;;;5002686;28;20446;-85
2023/06/22 07:29:47;;;;;;;23.43;21.07;;;23.00;99.90;;;;;;4999829;28;20698;-84
2023/06/22 07:32:12;;;;;;;26.50;24.30;;;22.70;99.90;;;;;;5002188;28;20199;-85
2023/06/22 07:34:38;;;;;;;25.50;23.60;;;22.20;99.90;;;;;;5000489;28;20266;-82
2023/06/22 07:37:04;;;;;;;29.80;27.10;;;21.90;99.90;;;;;;4983232;28;20209;-84
2023/06/22 07:39:30;;;;;;;30.57;27.87;;;21.60;99.90;;;;;;5001024;28;20193;-83
2023/06/22 07:41:56;;;;;;;28.87;26.47;;;21.60;99.90;;;;;;4998013;28;20446;-85
2023/06/22 07:44:23;;;;;;;29.60;27.10;;;21.50;99.90;;;;;;4999957;28;20262;-84
2023/06/22 07:46:49;;;;;;;29.40;27.00;;;21.50;99.90;;;;;;5005355;28;20192;-83
2023/06/22 07:49:14;;;;;;;29.63;27.03;;;21.40;99.90;;;;;;5001288;28;20509;-84
2023/06/22 07:51:40;;;;;;;32.13;29.13;;;21.40;99.90;;;;;;5004088;28;20204;-84
2023/06/22 07:54:06;;;;;;;31.07;28.47;;;21.50;99.90;;;;;;4977790;28;20228;-84
2023/06/22 07:56:32;;;;;;;31.70;28.57;;;21.40;99.90;;;;;;5003482;28;20212;-84
2023/06/22 07:59:00;;;;;;;32.07;29.40;;;21.30;99.90;;;;;;4993683;28;20467;-83
2023/06/22 08:01:26;;;;;;;32.77;29.67;;;21.40;99.90;;;;;;5003317;28;20519;-84
2023/06/22 08:03:51;;;;;;;32.27;29.57;;;21.30;99.90;;;;;;5002800;28;20471;-86
2023/06/22 08:06:17;;;;;;;32.70;30.00;;;21.30;99.90;;;;;;5011452;28;20184;-89
2023/06/22 08:08:43;;;;;;;31.23;28.63;;;21.30;99.90;;;;;;4998748;28;20295;-86
2023/06/22 08:11:09;;;;;;;33.90;31.10;;;21.30;99.90;;;;;;4985874;28;20448;-87
2023/06/22 08:13:34;;;;;;;32.03;29.43;;;21.20;99.90;;;;;;5001840;28;20257;-87
2023/06/22 08:16:00;;;;;;;31.30;28.63;;;21.20;99.90;;;;;;4998418;28;20523;-87
2023/06/22 08:18:26;;;;;;;33.37;30.47;;;21.20;99.90;;;;;;4988898;28;20220;-83
2023/06/22 08:20:51;;;;;;;30.87;28.47;;;21.30;99.90;;;;;;5009858;28;20584;-84
2023/06/22 08:23:20;;;;;;;32.87;29.47;;;21.40;99.90;;;;;;4998594;28;20216;-82
2023/06/22 08:25:48;;;;;;;30.60;28.10;;;21.50;99.90;;;;;;5015531;28;20232;-87
2023/06/22 08:28:14;;;;;;;29.70;27.23;;;21.70;99.90;;;;;;5010730;23;20479;-89
2023/06/22 08:30:40;;;;;;;30.37;27.77;;;21.90;99.90;;;;;;5028552;28;20976;-92
2023/06/22 08:33:06;;;;;;;28.30;25.90;;;22.00;99.90;;;;;;4991174;28;20444;-94
2023/06/22 08:35:40;;;;;;;26.97;24.60;;;22.20;99.90;;;;;;5023234;28;20189;-93
2023/06/22 08:38:15;;;;;;;27.47;25.17;;;22.40;99.90;;;;;;5012970;28;20220;-93
2023/06/22 08:40:44;;;;;;;26.70;24.60;;;22.60;99.90;;;;;;4999589;28;20964;-92
2023/06/22 08:43:12;;;;;;;28.83;26.20;;;22.70;99.90;;;;;;5007481;28;20440;-92
2023/06/22 08:45:38;;;;;;;27.97;25.77;;;22.80;99.90;;;;;;5000666;28;21016;-92
2023/06/22 08:48:22;;;;;;;29.20;26.43;;;23.00;99.90;;;;;;5011143;28;20456;-91
2023/06/22 08:50:48;;;;;;;26.47;24.20;;;23.20;99.90;;;;;;5004076;28;20262;-91
2023/06/22 08:53:14;;;;;;;28.07;25.77;;;23.50;99.90;;;;;;4995633;28;20440;-92
2023/06/22 08:55:50;;;;;;;25.93;23.73;;;23.80;99.90;;;;;;4991975;28;20447;-93
2023/06/22 08:58:16;;;;;;;24.37;22.57;;;24.10;99.90;;;;;;5003664;28;20216;-89
2023/06/22 09:00:44;;;;;;;24.90;23.13;;;24.50;99.90;;;;;;5011512;28;20865;-93
2023/06/22 09:03:11;;;;;;;23.87;22.17;;;24.90;99.90;;;;;;4996034;28;20210;-92
2023/06/22 09:05:39;;;;;;;24.57;22.40;;;25.20;99.90;;;;;;4997452;28;20420;-92
2023/06/22 09:08:05;;;;;;;24.57;22.40;;;25.40;99.90;;;;;;4998442;28;20493;-92
2023/06/22 09:10:31;;;;;;;23.30;21.40;;;25.70;99.90;;;;;;5000276;28;20515;-92
2023/06/22 09:12:58;;;;;;;21.70;20.03;;;26.60;99.90;;;;;;4995729;28;20184;-93
2023/06/22 09:15:24;;;;;;;21.10;19.53;;;27.40;99.90;;;;;;4992294;28;20444;-94
2023/06/22 09:17:54;;;;;;;21.23;19.43;;;27.50;99.90;;;;;;4993496;28;20670;-91
2023/06/22 09:20:19;;;;;;;21.30;19.17;;;27.70;99.90;;;;;;4983545;28;20441;-92
2023/06/22 09:22:47;;;;;;;19.57;18.17;;;28.60;99.90;;;;;;4986799;28;20686;-85
2023/06/22 09:25:13;;;;;;;19.83;18.30;;;29.60;99.90;;;;;;4984184;28;20183;-86
2023/06/22 09:27:39;;;;;;;17.57;16.47;;;29.90;99.90;;;;;;4981726;28;20472;-92
2023/06/22 09:30:05;;;;;;;20.50;18.50;;;29.60;99.90;;;;;;5035199;23;20230;-87
2023/06/22 09:32:31;;;;;;;19.37;17.97;;;29.60;99.90;;;;;;5040413;28;20951;-87
2023/06/22 09:34:56;;;;;;;19.97;18.60;;;28.70;99.90;;;;;;5045015;28;20429;-88
2023/06/22 09:37:22;;;;;;;17.60;16.23;;;28.70;99.90;;;;;;5046342;28;20658;-87
2023/06/22 09:39:48;;;;;;;18.83;17.43;;;29.40;99.90;;;;;;5045929;28;20247;-88
2023/06/22 09:42:13;;;;;;;17.93;16.70;;;29.50;99.90;;;;;;5044315;28;20241;-88
2023/06/22 09:44:39;;;;;;;18.70;17.53;;;29.50;99.90;;;;;;5030064;28;20325;-87
2023/06/22 09:47:05;;;;;;;19.03;17.70;;;29.40;99.90;;;;;;5040201;28;20219;-88
2023/06/22 09:49:32;;;;;;;19.17;17.87;;;28.90;99.90;;;;;;5034664;28;21007;-83
2023/06/22 09:51:57;;;;;;;17.63;16.30;;;29.00;99.90;;;;;;5009096;28;20535;-81
2023/06/22 09:54:23;;;;;;;16.63;15.53;;;28.80;99.90;;;;;;5034683;28;20450;-83
2023/06/22 09:56:48;;;;;;;15.63;14.43;;;28.80;99.90;;;;;;5024579;28;20192;-82
2023/06/22 09:59:14;;;;;;;15.53;14.00;;;29.10;99.90;;;;;;5027417;28;20203;-84
2023/06/22 10:01:39;;;;;;;16.70;15.70;;;29.40;99.90;;;;;;5015933;28;20615;-87
2023/06/22 10:04:05;;;;;;;18.17;16.77;;;29.70;99.90;;;;;;5012339;28;20662;-83
2023/06/22 10:06:31;;;;;;;16.37;15.47;;;29.80;99.90;;;;;;5029867;28;20190;-85
2023/06/22 10:08:56;;;;;;;15.77;14.67;;;29.10;99.90;;;;;;5027590;28;20207;-83
2023/06/22 10:11:28;;;;;;;16.70;15.50;;;29.30;99.90;;;;;;5012791;28;20211;-83
2023/06/22 10:13:54;;;;;;;17.63;16.53;;;29.60;99.90;;;;;;5030360;28;20274;-81
2023/06/22 10:16:20;;;;;;;17.53;16.43;;;29.70;99.90;;;;;;5030543;28;20522;-80
2023/06/22 10:18:45;;;;;;;17.03;15.70;;;29.90;99.70;;;;;;5028240;28;20628;-81
2023/06/22 10:21:11;;;;;;;18.20;17.10;;;29.80;99.70;;;;;;5032503;28;20734;-83
2023/06/22 10:23:37;;;;;;;17.37;16.33;;;29.30;99.70;;;;;;5024283;28;20400;-82
2023/06/22 10:26:02;;;;;;;16.43;15.17;;;29.20;99.90;;;;;;5033817;28;20606;-82
2023/06/22 10:28:28;;;;;;;16.43;15.43;;;29.60;99.90;;;;;;5031647;28;20228;-80
2023/06/22 10:30:53;;;;;;;18.17;16.73;;;30.10;99.50;;;;;;5021149;28;20236;-81
2023/06/22 10:33:20;;;;;;;17.53;16.20;;;30.70;98.50;;;;;;5029910;28;20633;-82
2023/06/22 10:35:46;;;;;;;18.17;16.87;;;30.90;96.80;;;;;;5031259;28;20494;-83
2023/06/22 10:38:11;;;;;;;19.27;18.07;;;30.80;96.80;;;;;;5032193;28;20444;-84
2023/06/22 10:40:39;;;;;;;18.80;17.50;;;30.60;95.90;;;;;;5033802;28;20271;-83
2023/06/22 10:43:04;;;;;;;18.83;17.60;;;30.40;97.00;;;;;;5032765;28;20194;-83
2023/06/22 10:45:30;;;;;;;20.33;18.83;;;30.20;96.70;;;;;;5035786;28;20498;-82
2023/06/22 10:47:56;;;;;;;19.50;18.13;;;29.50;97.20;;;;;;5028971;28;20208;-84
2023/06/22 10:50:23;;;;;;;19.10;17.70;;;29.10;98.80;;;;;;5036196;28;20179;-84
2023/06/22 10:52:49;;;;;;;21.73;20.13;;;28.90;99.80;;;;;;5034693;28;20198;-83
2023/06/22 10:55:15;;;;;;;21.23;19.90;;;28.70;99.90;;;;;;5039737;28;20435;-82
2023/06/22 10:57:43;;;;;;;22.47;20.17;;;28.40;99.90;;;;;;5027440;28;20214;-84
2023/06/22 11:00:09;;;;;;;21.37;19.67;;;28.30;99.90;;;;;;5026913;28;20188;-85
2023/06/22 11:02:34;;;;;;;22.90;20.50;;;28.20;99.90;;;;;;5037357;28;20431;-90
2023/06/22 11:05:03;;;;;;;20.70;19.03;;;28.20;99.90;;;;;;5054466;28;20429;-89
2023/06/22 11:07:32;;;;;;;21.10;19.50;;;27.90;99.90;;;;;;5032139;28;20276;-89
2023/06/22 11:09:58;;;;;;;19.87;18.60;;;27.70;99.90;;;;;;5018767;28;20427;-87
2023/06/22 11:12:24;;;;;;;21.10;19.60;;;27.70;99.90;;;;;;5046570;28;20475;-88
2023/06/22 11:14:52;;;;;;;22.77;21.07;;;27.60;99.90;;;;;;5043798;28;20221;-84
2023/06/22 11:17:19;;;;;;;22.87;21.27;;;27.40;99.90;;;;;;5036421;28;20199;-87
2023/06/22 11:19:45;;;;;;;25.33;23.03;;;27.00;99.90;;;;;;5034741;28;20438;-85
2023/06/22 11:22:10;;;;;;;27.60;25.47;;;26.60;99.90;;;;;;5030974;28;21186;-85
2023/06/22 11:24:36;;;;;;;26.93;24.83;;;26.40;99.90;;;;;;5026798;28;20179;-86
2023/06/22 11:27:02;;;;;;;29.07;26.77;;;26.10;99.90;;;;;;5023812;28;20351;-86
2023/06/22 11:29:27;;;;;;;31.37;28.60;;;25.70;99.90;;;;;;5037462;28;20334;-84
2023/06/22 11:31:53;;;;;;;33.70;30.60;;;25.50;99.90;;;;;;5021357;28;20196;-87
2023/06/22 11:34:19;;;;;;;30.33;28.00;;;25.20;99.90;;;;;;5043834;28;20215;-85
2023/06/22 11:36:45;;;;;;;33.20;30.50;;;25.00;99.90;;;;;;5023769;28;20232;-86
2023/06/22 11:39:11;;;;;;;34.77;31.80;;;24.70;99.90;;;;;;5043367;28;20193;-84
2023/06/22 11:41:39;;;;;;;37.50;33.90;;;24.60;99.90;;;;;;5045720;28;20417;-85
2023/06/22 11:44:04;;;;;;;36.70;33.50;;;24.40;99.90;;;;;;5033414;28;20478;-85
2023/06/22 11:46:31;;;;;;;36.63;33.63;;;24.20;99.90;;;;;;5050745;28;20416;-90
2023/06/22 11:48:57;;;;;;;39.47;35.67;;;23.80;99.90;;;;;;5044697;28;20211;-87
2023/06/22 11:51:22;;;;;;;42.07;38.13;;;23.70;99.90;;;;;;5043511;28;20952;-85
2023/06/22 11:53:48;;;;;;;42.73;38.53;;;23.60;99.90;;;;;;5035225;28;20195;-89
2023/06/22 11:56:14;;;;;;;43.53;39.53;;;23.50;99.90;;;;;;5050671;28;20610;-89
2023/06/22 11:58:39;;;;;;;43.03;38.60;;;23.50;99.90;;;;;;5043511;28;20278;-87
2023/06/22 12:01:05;;;;;;;41.03;37.07;;;23.50;99.90;;;;;;5028508;28;20647;-87
2023/06/22 12:03:34;;;;;;;37.40;34.27;;;23.50;99.90;;;;;;5039806;28;20199;-88
2023/06/22 12:06:02;;;;;;;37.20;34.17;;;23.50;99.90;;;;;;5037988;28;20198;-86
2023/06/22 12:08:28;;;;;;;40.23;36.37;;;23.50;99.90;;;;;;5043166;28;20477;-87
2023/06/22 12:10:54;;;;;;;37.77;34.57;;;23.50;99.90;;;;;;5045037;28;20430;-87
2023/06/22 12:13:19;;;;;;;37.33;34.23;;;23.70;99.90;;;;;;5048451;28;20195;-85
2023/06/22 12:15:45;;;;;;;38.50;35.27;;;23.70;99.90;;;;;;5025923;28;20423;-83
2023/06/22 12:18:11;;;;;;;39.27;35.90;;;23.80;99.90;;;;;;5037284;28;20210;-87
2023/06/22 12:20:37;;;;;;;35.67;32.47;;;23.80;99.90;;;;;;5041664;28;20175;-87
2023/06/22 12:23:02;;;;;;;35.37;32.13;;;23.80;99.90;;;;;;5028087;28;20453;-86
2023/06/22 12:25:28;;;;;;;38.67;34.97;;;23.70;99.90;;;;;;5037504;28;20430;-89
2023/06/22 12:27:53;;;;;;;38.33;34.83;;;23.60;99.90;;;;;;5029360;28;20222;-86
2023/06/22 12:30:19;;;;;;;38.10;34.57;;;23.70;99.90;;;;;;5012372;28;20456;-86
2023/06/22 12:32:45;;;;;;;37.63;34.33;;;23.50;99.90;;;;;;5033883;28;20305;-86